Terminal Aerodrome Forecast
Issued by NWS Goodland, KS

Home | Current Version | Previous Version | Text Only | Print | Product List | Glossary On
Versions: 1 2 3 4 5 6 7 8 9 10 11 12 13 14 15 16 17
000
FTUS43 KGLD 251741
TAFGLD
TAF
KGLD 251741Z 2518/2618 30007KT P6SM SKC
     FM252100 33010KT P6SM FEW250
     FM260000 36010KT P6SM SCT015
     FM260200 01010KT 6SM BR SCT005 OVC015
     FM260300 01013KT 3SM BR OVC005
     FM260700 01015G20KT 2SM -SN BR OVC005=

USA.gov is the U.S. government's official web portal to all federal, state and local government web resources and services.